sensor_id;sensor_type;location;lat;lon;timestamp;temperature;humidity
18781;DHT22;9519;51.890;8.970;2022-07-10T00:04:46;14.60;92.40
18781;DHT22;9519;51.890;8.970;2022-07-10T00:09:49;14.60;92.60
18781;DHT22;9519;51.890;8.970;2022-07-10T00:14:52;14.50;92.80
18781;DHT22;9519;51.890;8.970;2022-07-10T00:19:54;14.50;92.90
18781;DHT22;9519;51.890;8.970;2022-07-10T00:24:57;14.50;93.20
18781;DHT22;9519;51.890;8.970;2022-07-10T00:29:59;14.50;93.30
18781;DHT22;9519;51.890;8.970;2022-07-10T00:35:04;14.50;93.40
18781;DHT22;9519;51.890;8.970;2022-07-10T00:40:09;14.50;93.60
18781;DHT22;9519;51.890;8.970;2022-07-10T00:45:11;14.50;93.80
18781;DHT22;9519;51.890;8.970;2022-07-10T00:50:13;14.50;93.90
18781;DHT22;9519;51.890;8.970;2022-07-10T00:55:17;14.50;94.10
18781;DHT22;9519;51.890;8.970;2022-07-10T01:00:19;14.40;94.20
18781;DHT22;9519;51.890;8.970;2022-07-10T01:05:22;14.40;94.40
18781;DHT22;9519;51.890;8.970;2022-07-10T01:10:25;14.30;94.40
18781;DHT22;9519;51.890;8.970;2022-07-10T01:15:27;14.30;94.40
18781;DHT22;9519;51.890;8.970;2022-07-10T01:20:30;14.30;94.30
18781;DHT22;9519;51.890;8.970;2022-07-10T01:25:34;14.30;94.30
18781;DHT22;9519;51.890;8.970;2022-07-10T01:30:37;14.30;94.40
18781;DHT22;9519;51.890;8.970;2022-07-10T01:35:39;14.30;94.40
18781;DHT22;9519;51.890;8.970;2022-07-10T01:40:42;14.30;94.50
18781;DHT22;9519;51.890;8.970;2022-07-10T01:45:44;14.30;94.60
18781;DHT22;9519;51.890;8.970;2022-07-10T01:50:46;14.30;94.80
18781;DHT22;9519;51.890;8.970;2022-07-10T01:55:50;14.30;94.90
18781;DHT22;9519;51.890;8.970;2022-07-10T02:00:52;14.30;95.00
18781;DHT22;9519;51.890;8.970;2022-07-10T02:05:54;14.30;95.10
18781;DHT22;9519;51.890;8.970;2022-07-10T02:11:00;14.30;95.20
18781;DHT22;9519;51.890;8.970;2022-07-10T02:16:04;14.30;95.30
18781;DHT22;9519;51.890;8.970;2022-07-10T02:21:07;14.30;95.40
18781;DHT22;9519;51.890;8.970;2022-07-10T02:26:10;14.20;95.80
18781;DHT22;9519;51.890;8.970;2022-07-10T02:31:12;14.20;95.70
18781;DHT22;9519;51.890;8.970;2022-07-10T02:36:15;14.20;95.90
18781;DHT22;9519;51.890;8.970;2022-07-10T02:41:18;14.20;96.00
18781;DHT22;9519;51.890;8.970;2022-07-10T02:46:20;14.10;96.10
18781;DHT22;9519;51.890;8.970;2022-07-10T02:51:22;14.10;96.20
18781;DHT22;9519;51.890;8.970;2022-07-10T02:56:26;14.10;96.30
18781;DHT22;9519;51.890;8.970;2022-07-10T03:01:28;14.10;96.40
18781;DHT22;9519;51.890;8.970;2022-07-10T03:06:30;14.10;96.40
18781;DHT22;9519;51.890;8.970;2022-07-10T03:11:33;14.10;96.50
18781;DHT22;9519;51.890;8.970;2022-07-10T03:16:35;14.10;96.60
18781;DHT22;9519;51.890;8.970;2022-07-10T03:21:38;14.10;96.80
18781;DHT22;9519;51.890;8.970;2022-07-10T03:26:41;14.00;96.90
18781;DHT22;9519;51.890;8.970;2022-07-10T03:31:45;14.10;96.90
18781;DHT22;9519;51.890;8.970;2022-07-10T03:36:47;14.10;96.90
18781;DHT22;9519;51.890;8.970;2022-07-10T03:41:51;14.10;97.00
18781;DHT22;9519;51.890;8.970;2022-07-10T03:46:53;14.10;97.00
18781;DHT22;9519;51.890;8.970;2022-07-10T03:51:58;14.10;97.00
18781;DHT22;9519;51.890;8.970;2022-07-10T03:57:02;14.10;97.00
18781;DHT22;9519;51.890;8.970;2022-07-10T04:02:22;14.00;97.20
18781;DHT22;9519;51.890;8.970;2022-07-10T04:07:24;14.00;97.20
18781;DHT22;9519;51.890;8.970;2022-07-10T04:12:28;14.00;97.40
18781;DHT22;9519;51.890;8.970;2022-07-10T04:17:30;13.90;97.60
18781;DHT22;9519;51.890;8.970;2022-07-10T04:22:34;13.90;97.80
18781;DHT22;9519;51.890;8.970;2022-07-10T04:27:38;13.90;97.90
18781;DHT22;9519;51.890;8.970;2022-07-10T04:32:40;13.90;98.40
18781;DHT22;9519;51.890;8.970;2022-07-10T04:37:42;13.90;98.20
18781;DHT22;9519;51.890;8.970;2022-07-10T04:42:45;13.90;98.40
18781;DHT22;9519;51.890;8.970;2022-07-10T04:47:47;13.90;98.60
18781;DHT22;9519;51.890;8.970;2022-07-10T04:52:50;13.90;98.70
18781;DHT22;9519;51.890;8.970;2022-07-10T04:57:53;13.90;98.80
18781;DHT22;9519;51.890;8.970;2022-07-10T05:02:55;13.90;99.00
18781;DHT22;9519;51.890;8.970;2022-07-10T05:07:57;13.90;99.10
18781;DHT22;9519;51.890;8.970;2022-07-10T05:13:00;13.80;99.30
18781;DHT22;9519;51.890;8.970;2022-07-10T05:18:03;13.80;99.50
18781;DHT22;9519;51.890;8.970;2022-07-10T05:23:05;13.70;99.80
18781;DHT22;9519;51.890;8.970;2022-07-10T05:28:10;13.70;99.90
18781;DHT22;9519;51.890;8.970;2022-07-10T05:33:14;13.70;99.90
18781;DHT22;9519;51.890;8.970;2022-07-10T05:38:17;13.80;99.90
18781;DHT22;9519;51.890;8.970;2022-07-10T05:43:20;13.90;99.90
18781;DHT22;9519;51.890;8.970;2022-07-10T05:48:22;14.00;99.90
18781;DHT22;9519;51.890;8.970;2022-07-10T05:53:24;14.10;99.90
18781;DHT22;9519;51.890;8.970;2022-07-10T05:58:28;14.10;99.90
18781;DHT22;9519;51.890;8.970;2022-07-10T06:03:30;14.10;99.90
18781;DHT22;9519;51.890;8.970;2022-07-10T06:08:32;14.20;99.90
18781;DHT22;9519;51.890;8.970;2022-07-10T06:13:36;14.20;99.70
18781;DHT22;9519;51.890;8.970;2022-07-10T06:18:38;14.30;99.60
18781;DHT22;9519;51.890;8.970;2022-07-10T06:23:41;14.30;99.50
18781;DHT22;9519;51.890;8.970;2022-07-10T06:28:44;14.30;99.40
18781;DHT22;9519;51.890;8.970;2022-07-10T06:33:46;14.30;99.30
18781;DHT22;9519;51.890;8.970;2022-07-10T06:38:48;14.20;99.20
18781;DHT22;9519;51.890;8.970;2022-07-10T06:43:52;14.30;99.40
18781;DHT22;9519;51.890;8.970;2022-07-10T06:48:54;14.40;99.50
18781;DHT22;9519;51.890;8.970;2022-07-10T06:53:57;14.40;99.20
18781;DHT22;9519;51.890;8.970;2022-07-10T06:59:01;14.50;99.30
18781;DHT22;9519;51.890;8.970;2022-07-10T07:04:03;14.60;99.20
18781;DHT22;9519;51.890;8.970;2022-07-10T07:09:06;14.60;99.00
18781;DHT22;9519;51.890;8.970;2022-07-10T07:14:09;14.70;99.00
18781;DHT22;9519;51.890;8.970;2022-07-10T07:19:12;14.70;99.00
18781;DHT22;9519;51.890;8.970;2022-07-10T07:24:18;14.80;99.00
18781;DHT22;9519;51.890;8.970;2022-07-10T07:29:21;14.90;98.80
18781;DHT22;9519;51.890;8.970;2022-07-10T07:34:23;14.90;98.60
18781;DHT22;9519;51.890;8.970;2022-07-10T07:39:26;15.00;98.30
18781;DHT22;9519;51.890;8.970;2022-07-10T07:44:30;15.10;98.30
18781;DHT22;9519;51.890;8.970;2022-07-10T07:49:32;15.10;98.30
18781;DHT22;9519;51.890;8.970;2022-07-10T07:54:34;15.20;98.20
18781;DHT22;9519;51.890;8.970;2022-07-10T07:59:37;15.20;98.30
18781;DHT22;9519;51.890;8.970;2022-07-10T08:04:40;15.20;98.20
18781;DHT22;9519;51.890;8.970;2022-07-10T08:09:42;15.10;98.40
18781;DHT22;9519;51.890;8.970;2022-07-10T08:14:46;15.10;98.60
18781;DHT22;9519;51.890;8.970;2022-07-10T08:19:48;15.00;98.90
18781;DHT22;9519;51.890;8.970;2022-07-10T08:24:50;15.00;99.10
18781;DHT22;9519;51.890;8.970;2022-07-10T08:29:54;14.90;99.40
18781;DHT22;9519;51.890;8.970;2022-07-10T08:34:56;14.70;99.90
18781;DHT22;9519;51.890;8.970;2022-07-10T08:39:59;14.60;99.90
18781;DHT22;9519;51.890;8.970;2022-07-10T08:45:03;14.50;99.90
18781;DHT22;9519;51.890;8.970;2022-07-10T08:50:09;14.40;99.90
18781;DHT22;9519;51.890;8.970;2022-07-10T08:55:19;14.40;99.90
18781;DHT22;9519;51.890;8.970;2022-07-10T09:00:24;14.50;99.90
18781;DHT22;9519;51.890;8.970;2022-07-10T09:05:26;14.70;99.90
18781;DHT22;9519;51.890;8.970;2022-07-10T09:10:29;14.90;99.90
18781;DHT22;9519;51.890;8.970;2022-07-10T09:15:33;15.10;99.90
18781;DHT22;9519;51.890;8.970;2022-07-10T09:20:36;15.20;99.90
18781;DHT22;9519;51.890;8.970;2022-07-10T09:25:40;15.40;99.90
18781;DHT22;9519;51.890;8.970;2022-07-10T09:30:43;15.40;99.90
18781;DHT22;9519;51.890;8.970;2022-07-10T09:36:00;15.60;99.90
18781;DHT22;9519;51.890;8.970;2022-07-10T09:41:11;15.80;99.90
18781;DHT22;9519;51.890;8.970;2022-07-10T09:46:17;16.00;99.90
18781;DHT22;9519;51.890;8.970;2022-07-10T09:51:20;16.20;99.50
18781;DHT22;9519;51.890;8.970;2022-07-10T09:56:24;16.50;98.30
18781;DHT22;9519;51.890;8.970;2022-07-10T10:01:29;16.60;96.80
18781;DHT22;9519;51.890;8.970;2022-07-10T10:06:33;16.50;96.20
18781;DHT22;9519;51.890;8.970;2022-07-10T10:11:40;16.70;95.90
18781;DHT22;9519;51.890;8.970;2022-07-10T10:16:47;16.80;95.10
18781;DHT22;9519;51.890;8.970;2022-07-10T10:21:50;17.00;94.60
18781;DHT22;9519;51.890;8.970;2022-07-10T10:26:53;17.20;94.50
18781;DHT22;9519;51.890;8.970;2022-07-10T10:31:57;17.30;93.80
18781;DHT22;9519;51.890;8.970;2022-07-10T10:37:00;17.40;93.00
18781;DHT22;9519;51.890;8.970;2022-07-10T10:42:02;17.50;92.20
18781;DHT22;9519;51.890;8.970;2022-07-10T10:47:08;17.50;92.30
18781;DHT22;9519;51.890;8.970;2022-07-10T10:52:11;17.60;92.40
18781;DHT22;9519;51.890;8.970;2022-07-10T10:57:17;17.60;92.50
18781;DHT22;9519;51.890;8.970;2022-07-10T11:02:25;17.50;91.70
18781;DHT22;9519;51.890;8.970;2022-07-10T11:07:51;17.50;92.00
18781;DHT22;9519;51.890;8.970;2022-07-10T11:13:00;17.40;92.10
18781;DHT22;9519;51.890;8.970;2022-07-10T11:18:06;17.30;92.30
18781;DHT22;9519;51.890;8.970;2022-07-10T11:23:31;17.30;92.50
18781;DHT22;9519;51.890;8.970;2022-07-10T11:28:50;17.20;92.50
18781;DHT22;9519;51.890;8.970;2022-07-10T11:33:56;17.10;92.50
18781;DHT22;9519;51.890;8.970;2022-07-10T11:39:00;17.10;92.80
18781;DHT22;9519;51.890;8.970;2022-07-10T11:44:04;17.10;93.30
18781;DHT22;9519;51.890;8.970;2022-07-10T11:49:07;17.10;93.40
18781;DHT22;9519;51.890;8.970;2022-07-10T11:54:11;17.10;93.30
18781;DHT22;9519;51.890;8.970;2022-07-10T11:59:16;17.10;93.40
18781;DHT22;9519;51.890;8.970;2022-07-10T12:04:21;17.10;93.50
18781;DHT22;9519;51.890;8.970;2022-07-10T12:09:26;17.10;93.80
18781;DHT22;9519;51.890;8.970;2022-07-10T12:14:28;17.00;94.50
18781;DHT22;9519;51.890;8.970;2022-07-10T12:19:38;16.80;95.80
18781;DHT22;9519;51.890;8.970;2022-07-10T12:24:41;16.50;96.90
18781;DHT22;9519;51.890;8.970;2022-07-10T12:30:00;16.30;97.90
18781;DHT22;9519;51.890;8.970;2022-07-10T12:35:04;16.10;99.30
18781;DHT22;9519;51.890;8.970;2022-07-10T12:40:29;16.10;99.80
18781;DHT22;9519;51.890;8.970;2022-07-10T12:45:32;16.10;99.90
18781;DHT22;9519;51.890;8.970;2022-07-10T12:50:35;16.20;99.90
18781;DHT22;9519;51.890;8.970;2022-07-10T12:55:38;16.30;99.90
18781;DHT22;9519;51.890;8.970;2022-07-10T13:00:44;16.40;99.90
18781;DHT22;9519;51.890;8.970;2022-07-10T13:05:51;16.50;99.90
18781;DHT22;9519;51.890;8.970;2022-07-10T13:10:55;16.60;99.90
18781;DHT22;9519;51.890;8.970;2022-07-10T13:15:59;16.70;99.90
18781;DHT22;9519;51.890;8.970;2022-07-10T13:21:03;16.70;99.90
18781;DHT22;9519;51.890;8.970;2022-07-10T13:26:06;16.70;99.90
18781;DHT22;9519;51.890;8.970;2022-07-10T13:31:08;16.80;99.90
18781;DHT22;9519;51.890;8.970;2022-07-10T13:36:11;16.80;99.90
18781;DHT22;9519;51.890;8.970;2022-07-10T13:41:14;16.80;99.90
18781;DHT22;9519;51.890;8.970;2022-07-10T13:46:16;16.90;99.90
18781;DHT22;9519;51.890;8.970;2022-07-10T13:51:19;16.90;99.90
18781;DHT22;9519;51.890;8.970;2022-07-10T13:56:21;17.10;99.90
18781;DHT22;9519;51.890;8.970;2022-07-10T14:01:24;17.10;99.90
18781;DHT22;9519;51.890;8.970;2022-07-10T14:06:27;17.20;99.90
18781;DHT22;9519;51.890;8.970;2022-07-10T14:11:32;17.10;99.80
18781;DHT22;9519;51.890;8.970;2022-07-10T14:16:34;17.00;99.90
18781;DHT22;9519;51.890;8.970;2022-07-10T14:21:41;16.90;99.90
18781;DHT22;9519;51.890;8.970;2022-07-10T14:26:43;16.80;99.90
18781;DHT22;9519;51.890;8.970;2022-07-10T14:31:47;16.70;99.90
18781;DHT22;9519;51.890;8.970;2022-07-10T14:36:51;16.70;99.90
18781;DHT22;9519;51.890;8.970;2022-07-10T14:41:53;16.80;99.90
18781;DHT22;9519;51.890;8.970;2022-07-10T14:46:56;16.90;99.90
18781;DHT22;9519;51.890;8.970;2022-07-10T14:51:59;16.90;99.90
18781;DHT22;9519;51.890;8.970;2022-07-10T14:57:02;17.00;99.90
18781;DHT22;9519;51.890;8.970;2022-07-10T15:02:05;17.10;99.90
18781;DHT22;9519;51.890;8.970;2022-07-10T15:07:09;17.20;99.90
18781;DHT22;9519;51.890;8.970;2022-07-10T15:12:11;17.30;99.90
18781;DHT22;9519;51.890;8.970;2022-07-10T15:17:13;17.40;99.90
18781;DHT22;9519;51.890;8.970;2022-07-10T15:22:17;17.60;99.90
18781;DHT22;9519;51.890;8.970;2022-07-10T15:27:21;17.60;99.90
18781;DHT22;9519;51.890;8.970;2022-07-10T15:32:23;17.80;99.90
18781;DHT22;9519;51.890;8.970;2022-07-10T15:37:26;17.90;99.90
18781;DHT22;9519;51.890;8.970;2022-07-10T15:42:28;17.90;99.90
18781;DHT22;9519;51.890;8.970;2022-07-10T15:47:30;17.90;99.90
18781;DHT22;9519;51.890;8.970;2022-07-10T15:52:34;18.00;99.90
18781;DHT22;9519;51.890;8.970;2022-07-10T15:57:36;17.90;99.90
18781;DHT22;9519;51.890;8.970;2022-07-10T16:02:38;17.80;99.90
18781;DHT22;9519;51.890;8.970;2022-07-10T16:07:42;17.70;99.90
18781;DHT22;9519;51.890;8.970;2022-07-10T16:12:44;17.70;99.90
18781;DHT22;9519;51.890;8.970;2022-07-10T16:17:47;17.60;99.90
18781;DHT22;9519;51.890;8.970;2022-07-10T16:22:50;17.50;99.90
18781;DHT22;9519;51.890;8.970;2022-07-10T16:27:52;17.30;99.90
18781;DHT22;9519;51.890;8.970;2022-07-10T16:32:54;17.10;99.90
18781;DHT22;9519;51.890;8.970;2022-07-10T16:37:58;17.00;99.90
18781;DHT22;9519;51.890;8.970;2022-07-10T16:43:00;16.90;99.90
18781;DHT22;9519;51.890;8.970;2022-07-10T16:48:03;16.90;99.90
18781;DHT22;9519;51.890;8.970;2022-07-10T16:53:06;16.80;99.90
18781;DHT22;9519;51.890;8.970;2022-07-10T16:58:08;16.70;99.90
18781;DHT22;9519;51.890;8.970;2022-07-10T17:03:11;16.50;99.90
18781;DHT22;9519;51.890;8.970;2022-07-10T17:08:15;16.30;99.90
18781;DHT22;9519;51.890;8.970;2022-07-10T17:13:17;16.10;99.90
18781;DHT22;9519;51.890;8.970;2022-07-10T17:18:20;16.10;99.90
18781;DHT22;9519;51.890;8.970;2022-07-10T17:23:24;16.10;99.90
18781;DHT22;9519;51.890;8.970;2022-07-10T17:28:26;16.10;99.90
18781;DHT22;9519;51.890;8.970;2022-07-10T17:33:28;16.10;99.90
18781;DHT22;9519;51.890;8.970;2022-07-10T17:38:34;16.20;99.90
18781;DHT22;9519;51.890;8.970;2022-07-10T17:43:36;16.20;99.90
18781;DHT22;9519;51.890;8.970;2022-07-10T17:48:38;16.30;99.90
18781;DHT22;9519;51.890;8.970;2022-07-10T17:53:41;16.30;99.90
18781;DHT22;9519;51.890;8.970;2022-07-10T17:58:43;16.30;99.90
18781;DHT22;9519;51.890;8.970;2022-07-10T18:03:46;16.40;99.90
18781;DHT22;9519;51.890;8.970;2022-07-10T18:08:49;16.40;99.90
18781;DHT22;9519;51.890;8.970;2022-07-10T18:13:52;16.40;99.90
18781;DHT22;9519;51.890;8.970;2022-07-10T18:18:55;16.30;99.90
18781;DHT22;9519;51.890;8.970;2022-07-10T18:23:58;16.30;99.90
18781;DHT22;9519;51.890;8.970;2022-07-10T18:29:03;16.20;99.90
18781;DHT22;9519;51.890;8.970;2022-07-10T18:34:05;16.20;99.90
18781;DHT22;9519;51.890;8.970;2022-07-10T18:39:29;16.20;99.90
18781;DHT22;9519;51.890;8.970;2022-07-10T18:44:32;16.10;99.90
18781;DHT22;9519;51.890;8.970;2022-07-10T18:49:34;16.10;99.90
18781;DHT22;9519;51.890;8.970;2022-07-10T18:54:37;16.10;99.90
18781;DHT22;9519;51.890;8.970;2022-07-10T18:59:39;16.10;99.90
18781;DHT22;9519;51.890;8.970;2022-07-10T19:04:43;15.90;99.90
18781;DHT22;9519;51.890;8.970;2022-07-10T19:09:46;15.80;99.90
18781;DHT22;9519;51.890;8.970;2022-07-10T19:14:49;15.80;99.90
18781;DHT22;9519;51.890;8.970;2022-07-10T19:19:51;15.80;99.90
18781;DHT22;9519;51.890;8.970;2022-07-10T19:24:54;15.70;99.90
18781;DHT22;9519;51.890;8.970;2022-07-10T19:29:56;15.70;99.90
18781;DHT22;9519;51.890;8.970;2022-07-10T19:35:01;15.70;99.90
18781;DHT22;9519;51.890;8.970;2022-07-10T19:40:06;15.60;99.90
18781;DHT22;9519;51.890;8.970;2022-07-10T19:45:09;15.60;99.90
18781;DHT22;9519;51.890;8.970;2022-07-10T19:50:12;15.60;99.90
18781;DHT22;9519;51.890;8.970;2022-07-10T19:55:16;15.50;99.90
18781;DHT22;9519;51.890;8.970;2022-07-10T20:00:18;15.50;99.90
18781;DHT22;9519;51.890;8.970;2022-07-10T20:05:20;15.50;99.90
18781;DHT22;9519;51.890;8.970;2022-07-10T20:10:23;15.50;99.90
18781;DHT22;9519;51.890;8.970;2022-07-10T20:15:26;15.40;99.90
18781;DHT22;9519;51.890;8.970;2022-07-10T20:20:28;15.40;99.90
18781;DHT22;9519;51.890;8.970;2022-07-10T20:25:32;15.40;99.90
18781;DHT22;9519;51.890;8.970;2022-07-10T20:30:34;15.40;99.90
18781;DHT22;9519;51.890;8.970;2022-07-10T20:35:36;15.40;99.90
18781;DHT22;9519;51.890;8.970;2022-07-10T20:40:40;15.40;99.90
18781;DHT22;9519;51.890;8.970;2022-07-10T20:45:45;15.40;99.90
18781;DHT22;9519;51.890;8.970;2022-07-10T20:50:47;15.30;99.90
18781;DHT22;9519;51.890;8.970;2022-07-10T20:55:50;15.30;99.90
18781;DHT22;9519;51.890;8.970;2022-07-10T21:00:53;15.40;99.90
18781;DHT22;9519;51.890;8.970;2022-07-10T21:05:55;15.40;99.90
18781;DHT22;9519;51.890;8.970;2022-07-10T21:10:58;15.40;99.90
18781;DHT22;9519;51.890;8.970;2022-07-10T21:16:00;15.40;99.90
18781;DHT22;9519;51.890;8.970;2022-07-10T21:21:03;15.30;99.90
18781;DHT22;9519;51.890;8.970;2022-07-10T21:26:07;15.30;99.90
18781;DHT22;9519;51.890;8.970;2022-07-10T21:31:09;15.30;99.90
18781;DHT22;9519;51.890;8.970;2022-07-10T21:36:11;15.30;99.90
18781;DHT22;9519;51.890;8.970;2022-07-10T21:41:14;15.30;99.90
18781;DHT22;9519;51.890;8.970;2022-07-10T21:46:17;15.30;99.90
18781;DHT22;9519;51.890;8.970;2022-07-10T21:51:20;15.40;99.90
18781;DHT22;9519;51.890;8.970;2022-07-10T21:56:23;15.40;99.90
18781;DHT22;9519;51.890;8.970;2022-07-10T22:01:25;15.40;99.90
18781;DHT22;9519;51.890;8.970;2022-07-10T22:06:27;15.40;99.90
18781;DHT22;9519;51.890;8.970;2022-07-10T22:11:31;15.40;99.90
18781;DHT22;9519;51.890;8.970;2022-07-10T22:16:33;15.40;99.90
18781;DHT22;9519;51.890;8.970;2022-07-10T22:21:35;15.40;99.90
18781;DHT22;9519;51.890;8.970;2022-07-10T22:26:41;15.30;99.90
18781;DHT22;9519;51.890;8.970;2022-07-10T22:31:43;15.30;99.90
18781;DHT22;9519;51.890;8.970;2022-07-10T22:36:45;15.30;99.90
18781;DHT22;9519;51.890;8.970;2022-07-10T22:41:48;15.30;99.90
18781;DHT22;9519;51.890;8.970;2022-07-10T22:46:50;15.30;99.90
18781;DHT22;9519;51.890;8.970;2022-07-10T22:51:53;15.40;99.90
18781;DHT22;9519;51.890;8.970;2022-07-10T22:56:58;15.30;99.90
18781;DHT22;9519;51.890;8.970;2022-07-10T23:02:00;15.30;99.90
18781;DHT22;9519;51.890;8.970;2022-07-10T23:07:02;15.30;99.90
18781;DHT22;9519;51.890;8.970;2022-07-10T23:12:08;15.20;99.90
18781;DHT22;9519;51.890;8.970;2022-07-10T23:17:10;15.20;99.90
18781;DHT22;9519;51.890;8.970;2022-07-10T23:22:12;15.10;99.90
18781;DHT22;9519;51.890;8.970;2022-07-10T23:27:16;15.10;99.90
18781;DHT22;9519;51.890;8.970;2022-07-10T23:32:18;15.10;99.90
18781;DHT22;9519;51.890;8.970;2022-07-10T23:37:22;15.10;99.90
18781;DHT22;9519;51.890;8.970;2022-07-10T23:42:26;15.10;99.90
18781;DHT22;9519;51.890;8.970;2022-07-10T23:47:28;15.10;99.90
18781;DHT22;9519;51.890;8.970;2022-07-10T23:52:30;15.00;99.90
18781;DHT22;9519;51.890;8.970;2022-07-10T23:57:35;15.00;99.90
